sensor_id;sensor_type;location;lat;lon;timestamp;pressure;altitude;pressure_sealevel;temperature;humidity
2036;BME280;23642;42.658;23.350;2024-03-22T00:02:11;55900.03;;;-146.31;56.78
2036;BME280;23642;42.658;23.350;2024-03-22T00:10:39;55850.47;;;-146.31;59.80
2036;BME280;23642;42.658;23.350;2024-03-22T00:13:09;55716.19;;;-146.31;61.58
2036;BME280;23642;42.658;23.350;2024-03-22T00:16:00;55600.53;;;-146.31;60.71
2036;BME280;23642;42.658;23.350;2024-03-22T00:18:28;55625.31;;;-146.31;60.98
2036;BME280;23642;42.658;23.350;2024-03-22T00:20:57;55563.34;;;-146.31;62.55
2036;BME280;23642;42.658;23.350;2024-03-22T00:24:28;55517.91;;;-146.31;62.68
2036;BME280;23642;42.658;23.350;2024-03-22T00:26:51;55367.13;;;-146.31;63.21
2036;BME280;23642;42.658;23.350;2024-03-22T00:29:31;55228.75;;;-146.31;63.97
2036;BME280;23642;42.658;23.350;2024-03-22T00:32:24;55146.13;;;-146.31;63.40
2036;BME280;23642;42.658;23.350;2024-03-22T00:35:09;55158.53;;;-146.31;62.78
2036;BME280;23642;42.658;23.350;2024-03-22T00:37:39;55146.13;;;-146.31;63.97
2036;BME280;23642;42.658;23.350;2024-03-22T00:40:15;55090.38;;;-146.31;63.96
2036;BME280;23642;42.658;23.350;2024-03-22T00:42:44;55053.22;;;-146.31;64.63
2036;BME280;23642;42.658;23.350;2024-03-22T00:45:40;55022.22;;;-146.31;64.90
2036;BME280;23642;42.658;23.350;2024-03-22T00:48:34;54910.72;;;-146.31;66.75
2036;BME280;23642;42.658;23.350;2024-03-22T00:51:02;54879.72;;;-146.31;66.98
2036;BME280;23642;42.658;23.350;2024-03-22T00:53:46;54830.16;;;-146.31;68.18
2036;BME280;23642;42.658;23.350;2024-03-22T00:56:59;54720.72;;;-146.31;68.39
2036;BME280;23642;42.658;23.350;2024-03-22T00:59:49;54741.38;;;-146.31;66.55
2036;BME280;23642;42.658;23.350;2024-03-22T01:02:38;54745.50;;;-146.31;66.84
2036;BME280;23642;42.658;23.350;2024-03-22T01:08:35;54662.91;;;-146.31;67.83
2036;BME280;23642;42.658;23.350;2024-03-22T01:13:57;54677.34;;;-146.31;67.60
2036;BME280;23642;42.658;23.350;2024-03-22T01:16:43;54658.78;;;-146.31;69.85
2036;BME280;23642;42.658;23.350;2024-03-22T01:19:39;54588.56;;;-146.31;69.68
2036;BME280;23642;42.658;23.350;2024-03-22T01:23:02;54600.97;;;-146.31;68.34
2036;BME280;23642;42.658;23.350;2024-03-22T01:25:29;54638.13;;;-146.31;63.35
2036;BME280;23642;42.658;23.350;2024-03-22T01:28:00;54675.28;;;-146.31;63.75
2036;BME280;23642;42.658;23.350;2024-03-22T01:30:58;54706.28;;;-146.31;63.12
2036;BME280;23642;42.658;23.350;2024-03-22T01:33:37;54745.50;;;-146.31;58.44
2036;BME280;23642;42.658;23.350;2024-03-22T01:36:15;54823.97;;;-146.31;58.31
2036;BME280;23642;42.658;23.350;2024-03-22T01:38:53;54846.69;;;-146.31;58.77
2036;BME280;23642;42.658;23.350;2024-03-22T01:42:00;54857.03;;;-146.31;59.81
2036;BME280;23642;42.658;23.350;2024-03-22T01:44:33;54828.09;;;-146.31;60.58
2036;BME280;23642;42.658;23.350;2024-03-22T01:47:21;54834.31;;;-146.31;61.49
2036;BME280;23642;42.658;23.350;2024-03-22T01:49:51;54848.75;;;-146.31;60.36
2036;BME280;23642;42.658;23.350;2024-03-22T01:52:36;54788.88;;;-146.31;60.75
2036;BME280;23642;42.658;23.350;2024-03-22T01:55:28;54836.38;;;-146.31;62.26
2036;BME280;23642;42.658;23.350;2024-03-22T01:58:36;54815.72;;;-146.31;63.02
2036;BME280;23642;42.658;23.350;2024-03-22T02:01:16;54817.78;;;-146.31;62.20
2036;BME280;23642;42.658;23.350;2024-03-22T02:03:45;54821.91;;;-146.31;62.65
2036;BME280;23642;42.658;23.350;2024-03-22T02:06:33;54859.09;;;-146.31;63.77
2036;BME280;23642;42.658;23.350;2024-03-22T02:09:20;54836.38;;;-146.31;64.49
2036;BME280;23642;42.658;23.350;2024-03-22T02:12:10;54842.56;;;-146.31;64.61
2036;BME280;23642;42.658;23.350;2024-03-22T02:14:49;54823.97;;;-146.31;65.83
2036;BME280;23642;42.658;23.350;2024-03-22T02:17:57;54815.72;;;-146.31;67.04
2036;BME280;23642;42.658;23.350;2024-03-22T02:20:40;54780.59;;;-146.31;68.28
2036;BME280;23642;42.658;23.350;2024-03-22T02:23:48;54741.38;;;-146.31;68.55
2036;BME280;23642;42.658;23.350;2024-03-22T02:26:17;54728.97;;;-146.31;68.98
2036;BME280;23642;42.658;23.350;2024-03-22T02:29:02;54710.41;;;-146.31;68.09
2036;BME280;23642;42.658;23.350;2024-03-22T02:31:52;54664.97;;;-146.31;66.77
2036;BME280;23642;42.658;23.350;2024-03-22T02:34:26;54726.91;;;-146.31;66.56
2036;BME280;23642;42.658;23.350;2024-03-22T02:37:01;54671.16;;;-146.31;68.03
2036;BME280;23642;42.658;23.350;2024-03-22T02:39:57;54691.81;;;-146.31;67.80
2036;BME280;23642;42.658;23.350;2024-03-22T02:42:34;54646.38;;;-146.31;67.81
2036;BME280;23642;42.658;23.350;2024-03-22T02:45:05;54652.59;;;-146.31;68.12
2036;BME280;23642;42.658;23.350;2024-03-22T02:47:45;54667.03;;;-146.31;69.55
2036;BME280;23642;42.658;23.350;2024-03-22T02:50:20;54646.38;;;-146.31;70.01
2036;BME280;23642;42.658;23.350;2024-03-22T02:53:12;54609.22;;;-146.31;71.67
2036;BME280;23642;42.658;23.350;2024-03-22T03:06:00;54441.97;;;-146.31;74.83
2036;BME280;23642;42.658;23.350;2024-03-22T03:11:27;54411.00;;;-146.31;74.45
2036;BME280;23642;42.658;23.350;2024-03-22T03:12:02;54384.16;;;-146.31;74.43
2036;BME280;23642;42.658;23.350;2024-03-22T03:15:01;54363.50;;;-146.31;75.31
2036;BME280;23642;42.658;23.350;2024-03-22T03:18:09;54309.81;;;-146.31;74.82
2036;BME280;23642;42.658;23.350;2024-03-22T03:23:49;54332.53;;;-146.31;73.56
2036;BME280;23642;42.658;23.350;2024-03-22T03:26:51;54351.09;;;-146.31;72.70
2036;BME280;23642;42.658;23.350;2024-03-22T03:33:00;54382.09;;;-146.31;73.08
2036;BME280;23642;42.658;23.350;2024-03-22T03:51:43;54249.94;;;-146.31;77.69
2036;BME280;23642;42.658;23.350;2024-03-22T03:54:32;54196.25;;;-146.31;78.11
2036;BME280;23642;42.658;23.350;2024-03-22T04:00:13;54109.53;;;-146.31;80.70
2036;BME280;23642;42.658;23.350;2024-03-22T04:03:24;54037.28;;;-146.31;82.25
2036;BME280;23642;42.658;23.350;2024-03-22T04:16:28;53901.03;;;-146.31;81.49
2036;BME280;23642;42.658;23.350;2024-03-22T04:22:40;53884.50;;;-146.31;80.92
2036;BME280;23642;42.658;23.350;2024-03-22T04:25:33;53894.81;;;-146.31;80.37
2036;BME280;23642;42.658;23.350;2024-03-22T04:28:20;53894.81;;;-146.31;80.36
2036;BME280;23642;42.658;23.350;2024-03-22T04:31:06;53878.31;;;-146.31;80.83
2036;BME280;23642;42.658;23.350;2024-03-22T04:34:04;53857.66;;;-146.31;81.28
2036;BME280;23642;42.658;23.350;2024-03-22T04:36:44;53804.00;;;-146.31;81.22
2036;BME280;23642;42.658;23.350;2024-03-22T04:39:51;53845.28;;;-146.31;79.52
2036;BME280;23642;42.658;23.350;2024-03-22T04:43:01;53824.63;;;-146.31;79.64
2036;BME280;23642;42.658;23.350;2024-03-22T04:46:13;53822.56;;;-146.31;79.51
2036;BME280;23642;42.658;23.350;2024-03-22T04:48:54;53820.50;;;-146.31;78.77
2036;BME280;23642;42.658;23.350;2024-03-22T04:51:46;53847.34;;;-146.31;78.10
2036;BME280;23642;42.658;23.350;2024-03-22T04:54:25;53834.94;;;-146.31;77.07
2036;BME280;23642;42.658;23.350;2024-03-22T04:56:54;53865.91;;;-146.31;76.47
2036;BME280;23642;42.658;23.350;2024-03-22T04:59:58;53861.78;;;-146.31;75.95
2036;BME280;23642;42.658;23.350;2024-03-22T05:02:44;53855.59;;;-146.31;74.83
2036;BME280;23642;42.658;23.350;2024-03-22T05:08:36;53886.56;;;-146.31;74.44
2036;BME280;23642;42.658;23.350;2024-03-22T05:11:28;53853.53;;;-146.31;74.38
2036;BME280;23642;42.658;23.350;2024-03-22T05:14:19;53861.78;;;-146.31;73.40
2036;BME280;23642;42.658;23.350;2024-03-22T05:16:49;53874.19;;;-146.31;72.75
2036;BME280;23642;42.658;23.350;2024-03-22T05:19:58;53917.53;;;-146.31;71.13
2036;BME280;23642;42.658;23.350;2024-03-22T05:22:52;53927.84;;;-146.31;68.90
2036;BME280;23642;42.658;23.350;2024-03-22T05:32:32;54024.88;;;-146.31;64.15
2036;BME280;23642;42.658;23.350;2024-03-22T05:35:31;54024.88;;;-146.31;63.53
2036;BME280;23642;42.658;23.350;2024-03-22T05:38:18;54045.53;;;-146.31;62.65
2036;BME280;23642;42.658;23.350;2024-03-22T05:41:08;54088.88;;;-146.31;60.92
2036;BME280;23642;42.658;23.350;2024-03-22T05:43:57;54107.47;;;-146.31;60.83
2036;BME280;23642;42.658;23.350;2024-03-22T05:46:26;54163.22;;;-146.31;59.18
2036;BME280;23642;42.658;23.350;2024-03-22T05:49:18;54208.63;;;-146.31;58.61
2036;BME280;23642;42.658;23.350;2024-03-22T05:52:05;54233.41;;;-146.31;57.70
2036;BME280;23642;42.658;23.350;2024-03-22T05:54:55;54272.66;;;-146.31;56.91
2036;BME280;23642;42.658;23.350;2024-03-22T05:59:07;54270.59;;;-146.31;55.96
2036;BME280;23642;42.658;23.350;2024-03-22T06:00:42;54285.03;;;-146.31;55.22
2036;BME280;23642;42.658;23.350;2024-03-22T06:03:30;54295.34;;;-146.31;54.73
2036;BME280;23642;42.658;23.350;2024-03-22T06:09:18;54340.78;;;-146.31;52.36
2036;BME280;23642;42.658;23.350;2024-03-22T06:11:50;54336.66;;;-146.31;53.70
2036;BME280;23642;42.658;23.350;2024-03-22T06:14:34;54369.69;;;-146.31;52.23
2036;BME280;23642;42.658;23.350;2024-03-22T06:17:18;54402.72;;;-146.31;52.31
2036;BME280;23642;42.658;23.350;2024-03-22T06:20:07;54386.22;;;-146.31;52.26
2036;BME280;23642;42.658;23.350;2024-03-22T06:23:03;54413.06;;;-146.31;51.10
2036;BME280;23642;42.658;23.350;2024-03-22T06:26:22;54419.25;;;-146.31;50.46
2036;BME280;23642;42.658;23.350;2024-03-22T06:29:00;54413.06;;;-146.31;50.83
2036;BME280;23642;42.658;23.350;2024-03-22T06:31:31;54392.41;;;-146.31;50.96
2036;BME280;23642;42.658;23.350;2024-03-22T06:34:19;54417.19;;;-146.31;50.11
2036;BME280;23642;42.658;23.350;2024-03-22T06:36:58;54423.38;;;-146.31;50.10
2036;BME280;23642;42.658;23.350;2024-03-22T06:39:39;54462.59;;;-146.31;49.36
2036;BME280;23642;42.658;23.350;2024-03-22T06:42:12;54493.59;;;-146.31;48.01
2036;BME280;23642;42.658;23.350;2024-03-22T06:44:53;54518.38;;;-146.31;48.22
2036;BME280;23642;42.658;23.350;2024-03-22T06:47:41;54458.47;;;-146.31;48.32
2036;BME280;23642;42.658;23.350;2024-03-22T06:50:16;54495.66;;;-146.31;46.66
2036;BME280;23642;42.658;23.350;2024-03-22T06:53:09;54516.28;;;-146.31;46.79
2036;BME280;23642;42.658;23.350;2024-03-22T06:55:57;54539.00;;;-146.31;45.84
2036;BME280;23642;42.658;23.350;2024-03-22T06:58:26;54563.78;;;-146.31;45.19
2036;BME280;23642;42.658;23.350;2024-03-22T07:00:55;54561.72;;;-146.31;46.02
2036;BME280;23642;42.658;23.350;2024-03-22T07:03:45;54567.91;;;-146.31;45.59
2036;BME280;23642;42.658;23.350;2024-03-22T07:06:28;54567.91;;;-146.31;45.08
2036;BME280;23642;42.658;23.350;2024-03-22T07:09:09;54572.03;;;-146.31;44.64
2036;BME280;23642;42.658;23.350;2024-03-22T07:11:45;54596.81;;;-146.31;43.78
2036;BME280;23642;42.658;23.350;2024-03-22T07:14:14;54617.47;;;-146.31;43.46
2036;BME280;23642;42.658;23.350;2024-03-22T07:16:47;54617.47;;;-146.31;44.06
2036;BME280;23642;42.658;23.350;2024-03-22T07:19:52;54600.97;;;-146.31;44.49
2036;BME280;23642;42.658;23.350;2024-03-22T07:24:21;54539.00;;;-146.31;45.59
2036;BME280;23642;42.658;23.350;2024-03-22T07:25:51;54543.13;;;-146.31;44.96
2036;BME280;23642;42.658;23.350;2024-03-22T07:28:33;54603.03;;;-146.31;44.60
2036;BME280;23642;42.658;23.350;2024-03-22T07:48:43;54615.41;;;-146.31;43.83
2036;BME280;23642;42.658;23.350;2024-03-22T07:51:13;54584.44;;;-146.31;44.07
2036;BME280;23642;42.658;23.350;2024-03-22T07:53:40;54592.69;;;-146.31;43.63
2036;BME280;23642;42.658;23.350;2024-03-22T07:56:25;54605.09;;;-146.31;42.91
2036;BME280;23642;42.658;23.350;2024-03-22T07:59:11;54580.31;;;-146.31;42.95
2036;BME280;23642;42.658;23.350;2024-03-22T08:02:21;54594.75;;;-146.31;42.01
2036;BME280;23642;42.658;23.350;2024-03-22T08:05:01;54557.59;;;-146.31;42.32
2036;BME280;23642;42.658;23.350;2024-03-22T08:07:37;54584.44;;;-146.31;42.03
2036;BME280;23642;42.658;23.350;2024-03-22T08:10:39;54613.34;;;-146.31;41.67
2036;BME280;23642;42.658;23.350;2024-03-22T08:13:12;54619.53;;;-146.31;41.32
2036;BME280;23642;42.658;23.350;2024-03-22T08:20:12;54619.53;;;-146.31;41.92
2036;BME280;23642;42.658;23.350;2024-03-22T08:22:46;54596.81;;;-146.31;41.28
2036;BME280;23642;42.658;23.350;2024-03-22T08:25:53;54671.16;;;-146.31;40.29
2036;BME280;23642;42.658;23.350;2024-03-22T08:28:41;54671.16;;;-146.31;40.50
2036;BME280;23642;42.658;23.350;2024-03-22T08:31:36;54700.06;;;-146.31;40.19
2036;BME280;23642;42.658;23.350;2024-03-22T08:37:28;54803.31;;;-146.31;40.97
2036;BME280;23642;42.658;23.350;2024-03-22T08:46:58;54875.59;;;-146.31;41.59
2036;BME280;23642;42.658;23.350;2024-03-22T08:55:58;54755.84;;;-146.31;40.49
2036;BME280;23642;42.658;23.350;2024-03-22T08:58:37;54753.75;;;-146.31;39.46
2036;BME280;23642;42.658;23.350;2024-03-22T09:04:15;54931.38;;;-146.31;38.82
2036;BME280;23642;42.658;23.350;2024-03-22T09:10:55;54945.81;;;-146.31;38.77
2036;BME280;23642;42.658;23.350;2024-03-22T09:17:12;55036.69;;;-146.31;38.55
2036;BME280;23642;42.658;23.350;2024-03-22T09:24:20;55092.44;;;-146.31;38.41
2036;BME280;23642;42.658;23.350;2024-03-22T09:27:34;55088.31;;;-146.31;38.59
2036;BME280;23642;42.658;23.350;2024-03-22T09:33:51;55142.00;;;-146.31;37.96
2036;BME280;23642;42.658;23.350;2024-03-22T09:46:37;55206.03;;;-146.31;37.47
2036;BME280;23642;42.658;23.350;2024-03-22T09:50:13;55201.91;;;-146.31;37.35
2036;BME280;23642;42.658;23.350;2024-03-22T09:52:20;55203.97;;;-146.31;37.33
2036;BME280;23642;42.658;23.350;2024-03-22T09:55:42;55234.94;;;-146.31;37.89
2036;BME280;23642;42.658;23.350;2024-03-22T09:58:25;55220.50;;;-146.31;37.71
2036;BME280;23642;42.658;23.350;2024-03-22T10:01:04;55220.50;;;-146.31;37.99
2036;BME280;23642;42.658;23.350;2024-03-22T10:03:55;55150.28;;;-146.31;37.92
2036;BME280;23642;42.658;23.350;2024-03-22T10:06:56;55203.97;;;-146.31;38.17
2036;BME280;23642;42.658;23.350;2024-03-22T10:10:01;55216.34;;;-146.31;36.76
2036;BME280;23642;42.658;23.350;2024-03-22T10:29:37;55270.06;;;-146.31;37.54
2036;BME280;23642;42.658;23.350;2024-03-22T10:32:56;55239.06;;;-146.31;37.19
2036;BME280;23642;42.658;23.350;2024-03-22T10:35:45;55270.06;;;-146.31;37.55
2036;BME280;23642;42.658;23.350;2024-03-22T10:38:27;55237.00;;;-146.31;37.02
2036;BME280;23642;42.658;23.350;2024-03-22T10:41:02;55253.53;;;-146.31;36.49
2036;BME280;23642;42.658;23.350;2024-03-22T10:43:29;55274.19;;;-146.31;36.47
2036;BME280;23642;42.658;23.350;2024-03-22T10:46:20;55253.53;;;-146.31;36.68
2036;BME280;23642;42.658;23.350;2024-03-22T10:49:09;55280.38;;;-146.31;35.81
2036;BME280;23642;42.658;23.350;2024-03-22T10:51:47;55241.16;;;-146.31;35.73
2036;BME280;23642;42.658;23.350;2024-03-22T10:54:25;55274.19;;;-146.31;35.59
2036;BME280;23642;42.658;23.350;2024-03-22T10:57:06;55305.16;;;-146.31;35.74
2036;BME280;23642;42.658;23.350;2024-03-22T10:59:35;55270.06;;;-146.31;35.59
2036;BME280;23642;42.658;23.350;2024-03-22T11:02:15;55317.56;;;-146.31;35.90
2036;BME280;23642;42.658;23.350;2024-03-22T11:04:57;55253.53;;;-146.31;37.04
2036;BME280;23642;42.658;23.350;2024-03-22T11:07:38;55245.28;;;-146.31;36.39
2036;BME280;23642;42.658;23.350;2024-03-22T11:10:12;55255.59;;;-146.31;36.26
2036;BME280;23642;42.658;23.350;2024-03-22T11:12:42;55255.59;;;-146.31;35.64
2036;BME280;23642;42.658;23.350;2024-03-22T11:15:10;55234.94;;;-146.31;35.34
2036;BME280;23642;42.658;23.350;2024-03-22T11:18:00;55261.78;;;-146.31;34.52
2036;BME280;23642;42.658;23.350;2024-03-22T11:20:50;55292.78;;;-146.31;35.14
2036;BME280;23642;42.658;23.350;2024-03-22T11:23:23;55317.56;;;-146.31;34.87
2036;BME280;23642;42.658;23.350;2024-03-22T11:26:06;55311.38;;;-146.31;34.53
2036;BME280;23642;42.658;23.350;2024-03-22T11:28:56;55329.94;;;-146.31;34.19
2036;BME280;23642;42.658;23.350;2024-03-22T11:31:51;55307.22;;;-146.31;34.53
2036;BME280;23642;42.658;23.350;2024-03-22T11:34:42;55317.56;;;-146.31;33.98
2036;BME280;23642;42.658;23.350;2024-03-22T11:37:25;55325.81;;;-146.31;34.04
2036;BME280;23642;42.658;23.350;2024-03-22T11:39:55;55358.88;;;-146.31;33.86
2036;BME280;23642;42.658;23.350;2024-03-22T11:42:22;55363.00;;;-146.31;34.00
2036;BME280;23642;42.658;23.350;2024-03-22T11:44:54;55303.09;;;-146.31;34.76
2036;BME280;23642;42.658;23.350;2024-03-22T11:47:30;55249.41;;;-146.31;34.63
2036;BME280;23642;42.658;23.350;2024-03-22T11:53:48;55222.56;;;-146.31;34.42
2036;BME280;23642;42.658;23.350;2024-03-22T11:56:31;55245.28;;;-146.31;34.09
2036;BME280;23642;42.658;23.350;2024-03-22T11:59:19;55208.09;;;-146.31;33.57
2036;BME280;23642;42.658;23.350;2024-03-22T12:06:35;55237.00;;;-146.31;33.01
2036;BME280;23642;42.658;23.350;2024-03-22T12:09:02;55261.78;;;-146.31;33.07
2036;BME280;23642;42.658;23.350;2024-03-22T12:11:55;55249.41;;;-146.31;33.64
2036;BME280;23642;42.658;23.350;2024-03-22T12:14:48;55257.66;;;-146.31;32.84
2036;BME280;23642;42.658;23.350;2024-03-22T12:17:49;55313.44;;;-146.31;32.42
2036;BME280;23642;42.658;23.350;2024-03-22T12:20:44;55367.13;;;-146.31;32.39
2036;BME280;23642;42.658;23.350;2024-03-22T12:34:09;55257.66;;;-146.31;31.76
2036;BME280;23642;42.658;23.350;2024-03-22T12:40:35;55290.72;;;-146.31;31.38
2036;BME280;23642;42.658;23.350;2024-03-22T12:46:56;55373.31;;;-146.31;31.56
2036;BME280;23642;42.658;23.350;2024-03-22T12:50:06;55387.78;;;-146.31;32.25
2036;BME280;23642;42.658;23.350;2024-03-22T12:53:05;55431.16;;;-146.31;31.29
2036;BME280;23642;42.658;23.350;2024-03-22T12:56:01;55453.88;;;-146.31;31.36
2036;BME280;23642;42.658;23.350;2024-03-22T13:02:10;55464.22;;;-146.31;32.17
2036;BME280;23642;42.658;23.350;2024-03-22T13:11:44;55410.50;;;-146.31;31.27
2036;BME280;23642;42.658;23.350;2024-03-22T13:14:54;55406.38;;;-146.31;31.05
2036;BME280;23642;42.658;23.350;2024-03-22T13:21:49;55363.00;;;-146.31;30.97
2036;BME280;23642;42.658;23.350;2024-03-22T13:24:42;55340.28;;;-146.31;30.83
2036;BME280;23642;42.658;23.350;2024-03-22T13:27:34;55352.66;;;-146.31;30.78
2036;BME280;23642;42.658;23.350;2024-03-22T13:30:44;55363.00;;;-146.31;30.32
2036;BME280;23642;42.658;23.350;2024-03-22T13:33:31;55400.19;;;-146.31;30.40
2036;BME280;23642;42.658;23.350;2024-03-22T13:36:52;55414.63;;;-146.31;31.12
2036;BME280;23642;42.658;23.350;2024-03-22T13:39:23;55414.63;;;-146.31;30.77
2036;BME280;23642;42.658;23.350;2024-03-22T13:42:13;55406.38;;;-146.31;31.16
2036;BME280;23642;42.658;23.350;2024-03-22T13:44:50;55422.91;;;-146.31;30.72
2036;BME280;23642;42.658;23.350;2024-03-22T13:47:59;55414.63;;;-146.31;30.71
2036;BME280;23642;42.658;23.350;2024-03-22T13:50:41;55447.69;;;-146.31;30.32
2036;BME280;23642;42.658;23.350;2024-03-22T13:53:10;55472.47;;;-146.31;30.32
2036;BME280;23642;42.658;23.350;2024-03-22T13:55:59;55449.75;;;-146.31;30.47
2036;BME280;23642;42.658;23.350;2024-03-22T13:58:47;55414.63;;;-146.31;29.99
2036;BME280;23642;42.658;23.350;2024-03-22T14:01:18;55410.50;;;-146.31;30.22
2036;BME280;23642;42.658;23.350;2024-03-22T14:03:45;55439.41;;;-146.31;29.95
2036;BME280;23642;42.658;23.350;2024-03-22T14:06:39;55427.03;;;-146.31;30.96
2036;BME280;23642;42.658;23.350;2024-03-22T14:09:28;55478.66;;;-146.31;30.52
2036;BME280;23642;42.658;23.350;2024-03-22T14:12:01;55445.63;;;-146.31;30.95
2036;BME280;23642;42.658;23.350;2024-03-22T14:14:38;55451.81;;;-146.31;31.20
2036;BME280;23642;42.658;23.350;2024-03-22T14:17:31;55408.44;;;-146.31;31.15
2036;BME280;23642;42.658;23.350;2024-03-22T14:20:13;55443.56;;;-146.31;31.78
2036;BME280;23642;42.658;23.350;2024-03-22T14:23:11;55472.47;;;-146.31;31.76
2036;BME280;23642;42.658;23.350;2024-03-22T14:25:48;55476.59;;;-146.31;32.51
2036;BME280;23642;42.658;23.350;2024-03-22T14:28:17;55466.28;;;-146.31;32.10
2036;BME280;23642;42.658;23.350;2024-03-22T14:34:11;55548.88;;;-146.31;31.47
2036;BME280;23642;42.658;23.350;2024-03-22T14:36:54;55517.91;;;-146.31;31.31
2036;BME280;23642;42.658;23.350;2024-03-22T14:40:03;55511.72;;;-146.31;31.86
2036;BME280;23642;42.658;23.350;2024-03-22T14:43:05;55517.91;;;-146.31;31.69
2036;BME280;23642;42.658;23.350;2024-03-22T14:48:54;55515.84;;;-146.31;31.86
2036;BME280;23642;42.658;23.350;2024-03-22T14:54:52;55540.63;;;-146.31;31.80
2036;BME280;23642;42.658;23.350;2024-03-22T14:57:26;55542.69;;;-146.31;31.75
2036;BME280;23642;42.658;23.350;2024-03-22T15:00:22;55571.63;;;-146.31;31.30
2036;BME280;23642;42.658;23.350;2024-03-22T15:06:30;55573.69;;;-146.31;31.45
2036;BME280;23642;42.658;23.350;2024-03-22T15:09:19;55557.16;;;-146.31;31.49
2036;BME280;23642;42.658;23.350;2024-03-22T15:23:17;55447.69;;;-146.31;30.29
2036;BME280;23642;42.658;23.350;2024-03-22T15:26:13;55513.78;;;-146.31;30.91
2036;BME280;23642;42.658;23.350;2024-03-22T15:38:43;55548.88;;;-146.31;33.42
2036;BME280;23642;42.658;23.350;2024-03-22T15:47:35;55581.94;;;-146.31;34.40
2036;BME280;23642;42.658;23.350;2024-03-22T15:54:16;55604.66;;;-146.31;34.89
2036;BME280;23642;42.658;23.350;2024-03-22T15:57:51;55608.78;;;-146.31;34.98
2036;BME280;23642;42.658;23.350;2024-03-22T16:03:21;55612.91;;;-146.31;35.42
2036;BME280;23642;42.658;23.350;2024-03-22T16:05:54;55615.00;;;-146.31;35.51
2036;BME280;23642;42.658;23.350;2024-03-22T16:08:32;55627.38;;;-146.31;36.19
2036;BME280;23642;42.658;23.350;2024-03-22T16:11:10;55629.44;;;-146.31;36.19
2036;BME280;23642;42.658;23.350;2024-03-22T16:13:36;55654.22;;;-146.31;36.47
2036;BME280;23642;42.658;23.350;2024-03-22T16:16:35;55643.91;;;-146.31;36.82
2036;BME280;23642;42.658;23.350;2024-03-22T16:19:02;55674.88;;;-146.31;37.35
2036;BME280;23642;42.658;23.350;2024-03-22T16:21:50;55670.75;;;-146.31;38.15
2036;BME280;23642;42.658;23.350;2024-03-22T16:24:42;55691.41;;;-146.31;38.75
2036;BME280;23642;42.658;23.350;2024-03-22T16:27:19;55697.63;;;-146.31;39.32
2036;BME280;23642;42.658;23.350;2024-03-22T16:29:54;55666.63;;;-146.31;39.71
2036;BME280;23642;42.658;23.350;2024-03-22T16:32:28;55697.63;;;-146.31;40.46
2036;BME280;23642;42.658;23.350;2024-03-22T16:35:03;55710.00;;;-146.31;41.21
2036;BME280;23642;42.658;23.350;2024-03-22T16:37:45;55718.28;;;-146.31;41.47
2036;BME280;23642;42.658;23.350;2024-03-22T16:40:30;55714.13;;;-146.31;40.65
2036;BME280;23642;42.658;23.350;2024-03-22T16:43:20;55716.19;;;-146.31;40.51
2036;BME280;23642;42.658;23.350;2024-03-22T16:52:16;55743.06;;;-146.31;41.79
2036;BME280;23642;42.658;23.350;2024-03-22T16:54:57;55747.19;;;-146.31;42.07
2036;BME280;23642;42.658;23.350;2024-03-22T16:57:27;55732.72;;;-146.31;41.59
2036;BME280;23642;42.658;23.350;2024-03-22T17:00:21;55703.81;;;-146.31;41.51
2036;BME280;23642;42.658;23.350;2024-03-22T17:03:25;55707.94;;;-146.31;41.92
2036;BME280;23642;42.658;23.350;2024-03-22T17:06:02;55728.59;;;-146.31;42.65
2036;BME280;23642;42.658;23.350;2024-03-22T17:08:54;55749.25;;;-146.31;43.85
2036;BME280;23642;42.658;23.350;2024-03-22T17:11:48;55757.50;;;-146.31;44.48
2036;BME280;23642;42.658;23.350;2024-03-22T17:14:22;55741.00;;;-146.31;43.61
2036;BME280;23642;42.658;23.350;2024-03-22T17:20:26;55736.84;;;-146.31;45.23
2036;BME280;23642;42.658;23.350;2024-03-22T17:23:06;55761.66;;;-146.31;45.32
2036;BME280;23642;42.658;23.350;2024-03-22T17:25:43;55757.50;;;-146.31;46.29
2036;BME280;23642;42.658;23.350;2024-03-22T17:28:33;55774.03;;;-146.31;46.75
2036;BME280;23642;42.658;23.350;2024-03-22T17:31:17;55753.38;;;-146.31;46.61
2036;BME280;23642;42.658;23.350;2024-03-22T17:34:03;55765.78;;;-146.31;47.46
2036;BME280;23642;42.658;23.350;2024-03-22T17:36:58;55741.00;;;-146.31;47.82
2036;BME280;23642;42.658;23.350;2024-03-22T17:39:43;55749.25;;;-146.31;48.44
2036;BME280;23642;42.658;23.350;2024-03-22T17:42:14;55730.66;;;-146.31;48.71
2036;BME280;23642;42.658;23.350;2024-03-22T17:44:56;55745.13;;;-146.31;49.66
2036;BME280;23642;42.658;23.350;2024-03-22T17:47:56;55736.84;;;-146.31;49.54
2036;BME280;23642;42.658;23.350;2024-03-22T17:50:57;55712.06;;;-146.31;48.96
2036;BME280;23642;42.658;23.350;2024-03-22T17:53:39;55712.06;;;-146.31;49.93
2036;BME280;23642;42.658;23.350;2024-03-22T17:56:27;55707.94;;;-146.31;49.52
2036;BME280;23642;42.658;23.350;2024-03-22T17:59:16;55718.28;;;-146.31;49.55
2036;BME280;23642;42.658;23.350;2024-03-22T18:02:01;55741.00;;;-146.31;49.88
2036;BME280;23642;42.658;23.350;2024-03-22T18:04:54;55732.72;;;-146.31;50.66
2036;BME280;23642;42.658;23.350;2024-03-22T18:08:01;55736.84;;;-146.31;50.75
2036;BME280;23642;42.658;23.350;2024-03-22T18:14:23;55734.78;;;-146.31;50.75
2036;BME280;23642;42.658;23.350;2024-03-22T18:17:10;55712.06;;;-146.31;50.30
2036;BME280;23642;42.658;23.350;2024-03-22T18:19:59;55736.84;;;-146.31;50.96
2036;BME280;23642;42.658;23.350;2024-03-22T18:23:11;55753.38;;;-146.31;51.41
2036;BME280;23642;42.658;23.350;2024-03-22T18:26:31;55747.19;;;-146.31;51.68
2036;BME280;23642;42.658;23.350;2024-03-22T18:29:40;55718.28;;;-146.31;51.26
2036;BME280;23642;42.658;23.350;2024-03-22T18:32:36;55745.13;;;-146.31;51.43
2036;BME280;23642;42.658;23.350;2024-03-22T18:35:09;55741.00;;;-146.31;51.84
2036;BME280;23642;42.658;23.350;2024-03-22T18:37:46;55741.00;;;-146.31;51.17